createdAt,value
2022-09-23T04:00:35.071Z,1006.00
2022-09-23T04:01:34.969Z,1005.96
2022-09-23T04:02:35.034Z,1005.93
2022-09-23T04:03:34.943Z,1005.89
2022-09-23T04:04:34.929Z,1005.95
2022-09-23T04:05:34.914Z,1005.95
2022-09-23T04:06:34.918Z,1005.92
2022-09-23T04:07:34.898Z,1005.89
2022-09-23T04:08:34.883Z,1005.84
2022-09-23T04:09:34.871Z,1005.86
2022-09-23T04:10:34.866Z,1005.91
2022-09-23T04:11:39.879Z,1005.93
2022-09-23T04:12:34.838Z,1005.95
2022-09-23T04:13:34.824Z,1005.90
2022-09-23T04:14:34.813Z,1005.88
2022-09-23T04:15:34.800Z,1005.85
2022-09-23T04:16:34.938Z,1005.87
2022-09-23T04:17:34.781Z,1005.92
2022-09-23T04:18:34.768Z,1005.86
2022-09-23T04:19:34.765Z,1005.92
2022-09-23T04:20:34.748Z,1005.92
2022-09-23T04:21:34.743Z,1005.95
2022-09-23T04:22:39.745Z,1005.95
2022-09-23T04:23:34.713Z,1005.80
2022-09-23T04:24:34.701Z,1005.90
2022-09-23T04:25:34.697Z,1005.87
2022-09-23T04:26:34.696Z,1005.90
2022-09-23T04:27:37.753Z,1005.91
2022-09-23T04:28:34.658Z,1005.90
2022-09-23T04:29:34.644Z,1005.90
2022-09-23T04:30:34.633Z,1005.89
2022-09-23T04:31:34.745Z,1005.86
2022-09-23T04:32:34.646Z,1005.93
2022-09-23T04:33:39.623Z,1005.94
2022-09-23T04:34:34.589Z,1005.94
2022-09-23T04:35:39.372Z,1005.92
2022-09-23T04:36:35.568Z,1005.94
2022-09-23T04:37:34.570Z,1005.96
2022-09-23T04:38:34.569Z,1005.94
2022-09-23T04:39:34.554Z,1005.91
2022-09-23T04:40:34.604Z,1005.97
2022-09-23T04:41:34.512Z,1005.94
2022-09-23T04:42:34.510Z,1005.95
2022-09-23T04:43:34.490Z,1006.00
2022-09-23T04:44:39.499Z,1006.04
2022-09-23T04:45:34.464Z,1006.08
2022-09-23T04:46:34.512Z,1006.01
2022-09-23T04:47:34.451Z,1006.02
2022-09-23T04:48:34.450Z,1006.05
2022-09-23T04:49:34.419Z,1006.05
2022-09-23T04:50:34.414Z,1006.01
2022-09-23T04:51:34.400Z,1006.08
2022-09-23T04:52:34.438Z,1006.09
2022-09-23T04:53:34.385Z,1006.07
2022-09-23T04:54:34.364Z,1006.11
2022-09-23T04:55:39.375Z,1006.14
2022-09-23T04:56:34.340Z,1006.07
2022-09-23T04:57:34.338Z,1006.04
2022-09-23T04:58:34.319Z,1006.03
2022-09-23T04:59:34.305Z,1006.06
2022-09-23T05:00:34.340Z,1006.05
2022-09-23T05:01:34.568Z,1006.06
2022-09-23T05:02:34.812Z,1006.08
2022-09-23T05:03:34.261Z,1006.11
2022-09-23T05:04:34.331Z,1006.09
2022-09-23T05:05:34.241Z,1006.04
2022-09-23T05:06:39.256Z,1006.11
2022-09-23T05:07:34.244Z,1006.04
2022-09-23T05:08:34.214Z,1006.10
2022-09-23T05:09:34.193Z,1006.06
2022-09-23T05:10:34.196Z,1006.07
2022-09-23T05:11:34.176Z,1006.03
2022-09-23T05:12:34.175Z,1006.03
2022-09-23T05:13:34.149Z,1006.08
2022-09-23T05:14:34.139Z,1006.01
2022-09-23T05:15:34.127Z,1006.04
2022-09-23T05:16:34.216Z,1006.02
2022-09-23T05:17:39.136Z,1006.07
2022-09-23T05:18:34.097Z,1006.05
2022-09-23T05:19:34.081Z,1005.99
2022-09-23T05:20:34.149Z,1006.02
2022-09-23T05:21:34.060Z,1005.97
2022-09-23T05:22:34.061Z,1006.04
2022-09-23T05:23:34.038Z,1006.09
2022-09-23T05:24:34.039Z,1006.03
2022-09-23T05:25:38.120Z,1006.12
2022-09-23T05:26:34.005Z,1006.14
2022-09-23T05:27:34.002Z,1006.08
2022-09-23T05:28:39.006Z,1006.08
2022-09-23T05:29:33.972Z,1006.07
2022-09-23T05:30:33.961Z,1006.07
2022-09-23T05:31:34.001Z,1006.10
2022-09-23T05:32:33.946Z,1006.07
2022-09-23T05:33:33.994Z,1006.07
2022-09-23T05:34:33.930Z,1006.08
2022-09-23T05:35:33.903Z,1006.04
2022-09-23T05:36:37.848Z,1006.05
2022-09-23T05:37:33.889Z,1006.05
2022-09-23T05:38:33.869Z,1006.03
2022-09-23T05:39:38.882Z,1006.05
2022-09-23T05:40:33.930Z,1006.08
2022-09-23T05:41:33.915Z,1006.13
2022-09-23T05:42:33.838Z,1006.06
2022-09-23T05:43:33.814Z,1006.10
2022-09-23T05:44:33.802Z,1006.19
2022-09-23T05:45:33.796Z,1006.16
2022-09-23T05:46:33.907Z,1006.16
2022-09-23T05:47:33.776Z,1006.20
2022-09-23T05:48:33.777Z,1006.14
2022-09-23T05:49:57.932Z,1006.17
2022-09-23T05:50:39.756Z,1006.29
2022-09-23T05:51:33.724Z,1006.21
2022-09-23T05:52:33.761Z,1006.24
2022-09-23T05:53:33.704Z,1006.23
2022-09-23T05:54:33.690Z,1006.30
2022-09-23T05:55:33.680Z,1006.24
2022-09-23T05:56:33.674Z,1006.28
2022-09-23T05:57:33.683Z,1006.24
2022-09-23T05:58:33.645Z,1006.22
2022-09-23T05:59:33.632Z,1006.21
2022-09-23T06:00:33.623Z,1006.21
2022-09-23T06:01:38.866Z,1006.20
2022-09-23T06:02:33.658Z,1006.19
2022-09-23T06:03:33.589Z,1006.25
2022-09-23T06:04:33.581Z,1006.26
2022-09-23T06:05:33.565Z,1006.20
2022-09-23T06:06:33.563Z,1006.23
2022-09-23T06:07:33.562Z,1006.26
2022-09-23T06:08:33.554Z,1006.23
2022-09-23T06:09:36.550Z,1006.23
2022-09-23T06:10:33.514Z,1006.21
2022-09-23T06:11:33.497Z,1006.14
2022-09-23T06:12:38.520Z,1006.15
2022-09-23T06:13:33.476Z,1006.12
2022-09-23T06:14:33.469Z,1006.19
2022-09-23T06:15:33.454Z,1006.20
2022-09-23T06:16:33.483Z,1006.14
2022-09-23T06:17:33.455Z,1006.18
2022-09-23T06:18:33.492Z,1006.18
2022-09-23T06:19:33.414Z,1006.11
2022-09-23T06:20:33.401Z,1006.18
2022-09-23T06:21:33.396Z,1006.15
2022-09-23T06:22:37.418Z,1006.18
2022-09-23T06:23:41.650Z,1006.19
2022-09-23T06:24:33.356Z,1006.13
2022-09-23T06:25:33.339Z,1006.19
2022-09-23T06:26:33.333Z,1006.17
2022-09-23T06:27:33.326Z,1006.15
2022-09-23T06:28:33.304Z,1006.16
2022-09-23T06:29:33.296Z,1006.18
2022-09-23T06:30:33.289Z,1006.15
2022-09-23T06:31:33.392Z,1006.21
2022-09-23T06:32:33.273Z,1006.14
2022-09-23T06:33:37.030Z,1006.15
2022-09-23T06:34:49.666Z,1006.14
2022-09-23T06:35:34.227Z,1006.11
2022-09-23T06:36:41.991Z,1006.15
2022-09-23T06:37:34.248Z,1006.06
2022-09-23T06:38:33.215Z,1006.10
2022-09-23T06:39:33.254Z,1006.16
2022-09-23T06:40:33.232Z,1006.14
2022-09-23T06:41:33.157Z,1006.11
2022-09-23T06:42:33.161Z,1006.18
2022-09-23T06:43:33.141Z,1006.12
2022-09-23T06:44:33.127Z,1006.11
2022-09-23T06:45:38.133Z,1006.07
2022-09-23T06:46:33.171Z,1006.13
2022-09-23T06:47:33.098Z,1006.15
2022-09-23T06:48:33.100Z,1006.18
2022-09-23T06:49:33.070Z,1006.13
2022-09-23T06:50:33.081Z,1006.20
2022-09-23T06:51:33.050Z,1006.17
2022-09-23T06:52:33.046Z,1006.15
2022-09-23T06:53:33.104Z,1006.21
2022-09-23T06:54:33.011Z,1006.14
2022-09-23T06:55:33.025Z,1006.08
2022-09-23T06:56:39.664Z,1006.12
2022-09-23T06:57:32.991Z,1006.10
2022-09-23T06:58:32.968Z,1006.23
2022-09-23T06:59:32.952Z,1006.21
2022-09-23T07:00:32.944Z,1006.13
2022-09-23T07:01:33.160Z,1006.20
2022-09-23T07:02:33.083Z,1006.14
2022-09-23T07:03:32.907Z,1006.20
2022-09-23T07:04:32.896Z,1006.11
2022-09-23T07:05:32.883Z,1006.14
2022-09-23T07:06:32.874Z,1006.17
2022-09-23T07:07:37.897Z,1006.17
2022-09-23T07:08:32.850Z,1006.10
2022-09-23T07:09:32.838Z,1006.14
2022-09-23T07:10:32.847Z,1006.17
2022-09-23T07:11:32.891Z,1006.11
2022-09-23T07:12:32.806Z,1006.18
2022-09-23T07:13:32.801Z,1006.20
2022-09-23T07:14:32.781Z,1006.15
2022-09-23T07:15:32.932Z,1006.19
2022-09-23T07:16:32.759Z,1006.21
2022-09-23T07:17:32.746Z,1006.22
2022-09-23T07:18:46.015Z,1006.20
2022-09-23T07:19:32.721Z,1006.25
2022-09-23T07:20:32.716Z,1006.27
2022-09-23T07:21:32.699Z,1006.17
2022-09-23T07:22:32.691Z,1006.21
2022-09-23T07:23:32.693Z,1006.22
2022-09-23T07:24:32.669Z,1006.25
2022-09-23T07:25:32.653Z,1006.22
2022-09-23T07:26:32.659Z,1006.26
2022-09-23T07:27:32.653Z,1006.28
2022-09-23T07:28:32.640Z,1006.22
2022-09-23T07:29:46.616Z,1006.26
2022-09-23T07:30:33.642Z,1006.22
2022-09-23T07:31:39.020Z,1006.23
2022-09-23T07:32:46.055Z,1006.23
2022-09-23T07:33:33.782Z,1006.26
2022-09-23T07:34:32.559Z,1006.25
2022-09-23T07:35:32.540Z,1006.25
2022-09-23T07:36:32.530Z,1006.16
2022-09-23T07:37:32.517Z,1006.20
2022-09-23T07:38:32.520Z,1006.20
2022-09-23T07:39:32.526Z,1006.35
2022-09-23T07:40:37.615Z,1006.26
2022-09-23T07:41:32.476Z,1006.23
2022-09-23T07:42:32.461Z,1006.24
2022-09-23T07:43:32.515Z,1006.24
2022-09-23T07:44:32.441Z,1006.21
2022-09-23T07:45:32.430Z,1006.17
2022-09-23T07:46:32.496Z,1006.20
2022-09-23T07:47:32.413Z,1006.25
2022-09-23T07:48:34.652Z,1006.22
2022-09-23T07:49:32.397Z,1006.24
2022-09-23T07:50:32.371Z,1006.25
2022-09-23T07:51:37.388Z,1006.31
2022-09-23T07:52:32.349Z,1006.24
2022-09-23T07:53:32.352Z,1006.33
2022-09-23T07:54:32.325Z,1006.35
2022-09-23T07:55:32.314Z,1006.30
2022-09-23T07:56:32.300Z,1006.32
2022-09-23T07:57:32.303Z,1006.26
2022-09-23T07:58:32.290Z,1006.28
2022-09-23T07:59:32.293Z,1006.25
2022-09-23T08:00:32.256Z,1006.34
2022-09-23T08:01:32.319Z,1006.36
2022-09-23T08:02:37.296Z,1006.31
2022-09-23T08:03:32.277Z,1006.35
2022-09-23T08:04:32.210Z,1006.28
2022-09-23T08:05:32.202Z,1006.30
2022-09-23T08:06:32.187Z,1006.31
2022-09-23T08:07:32.175Z,1006.35
2022-09-23T08:08:32.181Z,1006.35
2022-09-23T08:09:32.156Z,1006.37
2022-09-23T08:10:32.140Z,1006.41
2022-09-23T08:11:32.158Z,1006.39
2022-09-23T08:12:32.123Z,1006.31
2022-09-23T08:13:37.143Z,1006.28
2022-09-23T08:14:32.096Z,1006.33
2022-09-23T08:15:32.155Z,1006.40
2022-09-23T08:16:32.072Z,1006.25
2022-09-23T08:17:32.077Z,1006.36
2022-09-23T08:18:32.059Z,1006.40
2022-09-23T08:19:32.063Z,1006.35
2022-09-23T08:20:32.029Z,1006.47
2022-09-23T08:21:32.022Z,1006.41
2022-09-23T08:22:32.013Z,1006.44
2022-09-23T08:23:32.008Z,1006.49
2022-09-23T08:24:37.006Z,1006.49
2022-09-23T08:25:34.321Z,1006.49
2022-09-23T08:26:31.979Z,1006.46
2022-09-23T08:27:31.950Z,1006.40
2022-09-23T08:28:31.976Z,1006.39
2022-09-23T08:29:31.929Z,1006.43
2022-09-23T08:30:31.921Z,1006.45
2022-09-23T08:31:31.924Z,1006.39
2022-09-23T08:32:31.893Z,1006.34
2022-09-23T08:33:31.900Z,1006.36
2022-09-23T08:34:31.878Z,1006.34
2022-09-23T08:35:36.884Z,1006.28
2022-09-23T08:36:31.848Z,1006.29
2022-09-23T08:37:31.840Z,1006.28
2022-09-23T08:38:31.839Z,1006.30
2022-09-23T08:39:31.815Z,1006.28
2022-09-23T08:40:31.848Z,1006.33
2022-09-23T08:41:31.792Z,1006.35
2022-09-23T08:42:31.785Z,1006.34
2022-09-23T08:43:31.804Z,1006.34
2022-09-23T08:44:31.755Z,1006.39
2022-09-23T08:45:31.769Z,1006.39
2022-09-23T08:46:36.870Z,1006.39
2022-09-23T08:47:31.724Z,1006.38
2022-09-23T08:48:31.723Z,1006.39
2022-09-23T08:49:31.699Z,1006.41
2022-09-23T08:50:31.691Z,1006.42
2022-09-23T08:51:31.685Z,1006.36
2022-09-23T08:52:31.671Z,1006.35
2022-09-23T08:53:31.670Z,1006.29
2022-09-23T08:54:31.643Z,1006.35
2022-09-23T08:55:31.631Z,1006.31
2022-09-23T08:56:31.624Z,1006.29
2022-09-23T08:57:36.628Z,1006.30
2022-09-23T08:58:31.603Z,1006.33
2022-09-23T08:59:31.584Z,1006.31
2022-09-23T09:00:31.574Z,1006.30
2022-09-23T09:01:31.640Z,1006.30
2022-09-23T09:02:31.596Z,1006.35
2022-09-23T09:03:31.556Z,1006.34
2022-09-23T09:04:31.535Z,1006.34
2022-09-23T09:05:31.521Z,1006.30
2022-09-23T09:06:31.502Z,1006.30
2022-09-23T09:07:36.559Z,1006.30
2022-09-23T09:08:37.516Z,1006.27
2022-09-23T09:09:31.477Z,1006.26
2022-09-23T09:10:31.493Z,1006.27
2022-09-23T09:11:31.457Z,1006.29
2022-09-23T09:12:31.440Z,1006.26
2022-09-23T09:13:31.432Z,1006.24
2022-09-23T09:14:31.407Z,1006.26
2022-09-23T09:15:31.488Z,1006.27
2022-09-23T09:16:58.554Z,1006.25
2022-09-23T09:17:34.993Z,1006.26
2022-09-23T09:18:31.405Z,1006.30
2022-09-23T09:19:36.375Z,1006.26
2022-09-23T09:20:31.342Z,1006.26
2022-09-23T09:21:31.332Z,1006.19
2022-09-23T09:22:31.342Z,1006.27
2022-09-23T09:23:31.338Z,1006.32
2022-09-23T09:24:31.303Z,1006.30
2022-09-23T09:25:34.089Z,1006.30
2022-09-23T09:26:31.267Z,1006.28
2022-09-23T09:27:31.264Z,1006.25
2022-09-23T09:28:31.262Z,1006.16
2022-09-23T09:29:35.489Z,1006.20
2022-09-23T09:30:37.325Z,1006.22
2022-09-23T09:31:31.374Z,1006.16
2022-09-23T09:32:31.202Z,1006.13
2022-09-23T09:33:31.197Z,1006.13
2022-09-23T09:34:31.219Z,1006.10
2022-09-23T09:35:31.172Z,1006.10
2022-09-23T09:36:31.156Z,1006.11
2022-09-23T09:37:31.621Z,1006.01
2022-09-23T09:38:31.132Z,1005.96
2022-09-23T09:39:31.140Z,1006.01
2022-09-23T09:40:31.170Z,1006.02
2022-09-23T09:41:36.129Z,1005.99
2022-09-23T09:42:31.094Z,1006.02
2022-09-23T09:43:32.402Z,1006.05
2022-09-23T09:44:31.075Z,1005.97
2022-09-23T09:45:33.518Z,1005.99
2022-09-23T09:46:31.131Z,1005.98
2022-09-23T09:47:31.033Z,1005.90
2022-09-23T09:48:31.024Z,1005.91
2022-09-23T09:49:31.027Z,1005.90
2022-09-23T09:50:31.030Z,1005.90
2022-09-23T09:51:30.987Z,1005.91
2022-09-23T09:52:42.747Z,1005.92
2022-09-23T09:53:30.913Z,1005.91
2022-09-23T09:54:30.913Z,1005.89
2022-09-23T09:55:30.892Z,1005.84
2022-09-23T09:56:30.910Z,1005.82
2022-09-23T09:57:33.712Z,1005.84
2022-09-23T09:58:31.849Z,1005.83
2022-09-23T09:59:30.850Z,1005.77
2022-09-23T10:00:30.826Z,1005.80
2022-09-23T10:01:30.855Z,1005.81
2022-09-23T10:02:30.809Z,1005.88
2022-09-23T10:03:35.828Z,1005.78
2022-09-23T10:04:30.854Z,1005.77
2022-09-23T10:05:30.770Z,1005.76
2022-09-23T10:06:30.776Z,1005.79
2022-09-23T10:07:30.747Z,1005.77
2022-09-23T10:08:30.734Z,1005.75
2022-09-23T10:09:30.737Z,1005.75
2022-09-23T10:10:33.221Z,1005.66
2022-09-23T10:11:30.698Z,1005.74
2022-09-23T10:12:30.691Z,1005.62
2022-09-23T10:13:30.679Z,1005.69
2022-09-23T10:14:35.697Z,1005.65
2022-09-23T10:15:30.653Z,1005.70
2022-09-23T10:16:30.672Z,1005.72
2022-09-23T10:17:30.630Z,1005.68
2022-09-23T10:18:30.618Z,1005.67
2022-09-23T10:19:30.649Z,1005.69
2022-09-23T10:20:30.595Z,1005.68
2022-09-23T10:21:30.622Z,1005.65
2022-09-23T10:22:30.598Z,1005.64
2022-09-23T10:23:30.565Z,1005.67
2022-09-23T10:24:30.569Z,1005.61
2022-09-23T10:25:35.584Z,1005.65
2022-09-23T10:26:30.530Z,1005.64
2022-09-23T10:27:30.520Z,1005.62
2022-09-23T10:28:30.506Z,1005.64
2022-09-23T10:29:30.519Z,1005.63
2022-09-23T10:30:30.603Z,1005.61
2022-09-23T10:31:30.477Z,1005.58
2022-09-23T10:32:30.460Z,1005.63
2022-09-23T10:33:30.449Z,1005.57
2022-09-23T10:34:30.453Z,1005.58
2022-09-23T10:35:30.429Z,1005.59
2022-09-23T10:36:35.463Z,1005.52
2022-09-23T10:37:30.422Z,1005.57
2022-09-23T10:38:30.415Z,1005.49
2022-09-23T10:39:30.396Z,1005.49
2022-09-23T10:40:30.507Z,1005.46
2022-09-23T10:41:30.366Z,1005.51
2022-09-23T10:42:30.438Z,1005.48
2022-09-23T10:43:30.355Z,1005.40
2022-09-23T10:44:30.329Z,1005.47
2022-09-23T10:45:30.351Z,1005.44
2022-09-23T10:46:30.400Z,1005.43
2022-09-23T10:47:35.326Z,1005.42
2022-09-23T10:48:30.293Z,1005.39
2022-09-23T10:49:30.276Z,1005.37
2022-09-23T10:50:30.277Z,1005.44
2022-09-23T10:51:30.261Z,1005.40
2022-09-23T10:52:30.251Z,1005.44
2022-09-23T10:53:30.235Z,1005.35
2022-09-23T10:54:30.258Z,1005.39
2022-09-23T10:55:30.232Z,1005.34
2022-09-23T10:56:30.197Z,1005.34
2022-09-23T10:57:30.204Z,1005.38
2022-09-23T10:58:35.206Z,1005.35
2022-09-23T10:59:30.166Z,1005.32
2022-09-23T11:00:30.174Z,1005.37
2022-09-23T11:01:30.207Z,1005.36
2022-09-23T11:02:30.157Z,1005.32
2022-09-23T11:03:30.125Z,1005.30
2022-09-23T11:04:30.150Z,1005.30
2022-09-23T11:05:30.116Z,1005.39
2022-09-23T11:06:30.101Z,1005.47
2022-09-23T11:07:33.812Z,1005.41
2022-09-23T11:08:31.129Z,1005.36
2022-09-23T11:09:35.108Z,1005.35
2022-09-23T11:10:45.517Z,1005.32
2022-09-23T11:11:31.032Z,1005.33
2022-09-23T11:12:30.027Z,1005.38
2022-09-23T11:13:30.014Z,1005.36
2022-09-23T11:14:29.998Z,1005.36
2022-09-23T11:15:30.007Z,1005.31
2022-09-23T11:16:30.036Z,1005.30
2022-09-23T11:17:29.974Z,1005.25
2022-09-23T11:18:29.959Z,1005.29
2022-09-23T11:19:29.950Z,1005.26
2022-09-23T11:20:34.972Z,1005.34
2022-09-23T11:21:29.965Z,1005.35
2022-09-23T11:22:29.911Z,1005.27
2022-09-23T11:23:29.903Z,1005.32
2022-09-23T11:24:29.894Z,1005.26
2022-09-23T11:25:29.907Z,1005.22
2022-09-23T11:26:33.172Z,1005.30
2022-09-23T11:27:29.856Z,1005.19
2022-09-23T11:28:29.890Z,1005.19
2022-09-23T11:29:29.891Z,1005.13
2022-09-23T11:30:29.915Z,1005.17
2022-09-23T11:31:34.835Z,1005.11
2022-09-23T11:32:29.824Z,1005.07
2022-09-23T11:33:29.803Z,1005.09
2022-09-23T11:34:29.823Z,1005.10
2022-09-23T11:35:29.812Z,1005.07
2022-09-23T11:36:29.768Z,1004.99
2022-09-23T11:37:30.276Z,1005.06
2022-09-23T11:38:29.736Z,1005.00
2022-09-23T11:39:29.727Z,1005.06
2022-09-23T11:40:29.804Z,1005.04
2022-09-23T11:41:29.742Z,1005.03
2022-09-23T11:42:34.710Z,1005.03
2022-09-23T11:43:29.679Z,1005.03
2022-09-23T11:44:29.672Z,1005.00
2022-09-23T11:45:29.670Z,1005.01
2022-09-23T11:46:29.708Z,1004.95
2022-09-23T11:47:29.641Z,1004.96
2022-09-23T11:48:29.626Z,1005.00
2022-09-23T11:49:29.617Z,1004.92
2022-09-23T11:50:29.642Z,1004.91
2022-09-23T11:51:29.613Z,1004.97
2022-09-23T11:52:29.578Z,1004.85
2022-09-23T11:53:34.597Z,1004.85
2022-09-23T11:54:29.556Z,1004.86
2022-09-23T11:55:29.561Z,1004.85
2022-09-23T11:56:35.565Z,1004.85
2022-09-23T11:57:39.303Z,1004.81
2022-09-23T11:58:30.559Z,1004.85
2022-09-23T11:59:38.060Z,1004.81
2022-09-23T12:00:30.488Z,1004.78
2022-09-23T12:01:36.501Z,1004.82
2022-09-23T12:02:31.318Z,1004.78
2022-09-23T12:03:42.304Z,1004.76
2022-09-23T12:04:36.191Z,1004.78
2022-09-23T12:05:29.620Z,1004.68
2022-09-23T12:06:29.442Z,1004.76
2022-09-23T12:07:29.416Z,1004.63
2022-09-23T12:08:29.430Z,1004.67
2022-09-23T12:09:53.846Z,1004.64
2022-09-23T12:10:30.386Z,1004.68
2022-09-23T12:11:29.393Z,1004.69
2022-09-23T12:12:29.359Z,1004.64
2022-09-23T12:13:29.366Z,1004.69
2022-09-23T12:14:29.359Z,1004.69
2022-09-23T12:15:34.341Z,1004.66
2022-09-23T12:16:29.393Z,1004.69
2022-09-23T12:17:29.298Z,1004.65
2022-09-23T12:18:29.310Z,1004.60
2022-09-23T12:19:29.280Z,1004.64
2022-09-23T12:20:29.266Z,1004.59
2022-09-23T12:21:49.391Z,1004.50
2022-09-23T12:22:30.251Z,1004.56
2022-09-23T12:23:29.232Z,1004.50
2022-09-23T12:24:29.248Z,1004.55
2022-09-23T12:25:29.209Z,1004.56
2022-09-23T12:26:34.245Z,1004.47
2022-09-23T12:27:29.187Z,1004.55
2022-09-23T12:28:29.178Z,1004.56
2022-09-23T12:30:29.266Z,1004.53
2022-09-23T12:31:29.150Z,1004.59
2022-09-23T12:32:29.136Z,1004.49
2022-09-23T12:33:29.130Z,1004.55
2022-09-23T12:34:29.111Z,1004.53
2022-09-23T12:35:29.102Z,1004.53
2022-09-23T12:36:29.102Z,1004.47
2022-09-23T12:37:34.097Z,1004.50
2022-09-23T12:38:29.065Z,1004.48
2022-09-23T12:39:29.051Z,1004.31
2022-09-23T12:40:29.078Z,1004.42
2022-09-23T12:41:29.044Z,1004.39
2022-09-23T12:42:31.285Z,1004.33
2022-09-23T12:43:29.010Z,1004.31
2022-09-23T12:44:28.999Z,1004.32
2022-09-23T12:45:29.016Z,1004.33
2022-09-23T12:46:28.990Z,1004.28
2022-09-23T12:47:28.970Z,1004.30
2022-09-23T12:48:33.978Z,1004.34
2022-09-23T12:49:28.976Z,1004.33
2022-09-23T12:50:28.935Z,1004.32
2022-09-23T12:51:28.933Z,1004.35
2022-09-23T12:52:28.926Z,1004.27
2022-09-23T12:53:28.900Z,1004.29
2022-09-23T12:54:28.893Z,1004.29
2022-09-23T12:55:28.880Z,1004.36
2022-09-23T12:56:28.887Z,1004.34
2022-09-23T12:57:28.856Z,1004.21
2022-09-23T12:58:28.865Z,1004.30
2022-09-23T12:59:33.861Z,1004.26
2022-09-23T13:00:33.520Z,1004.27
2022-09-23T13:01:30.078Z,1004.24
2022-09-23T13:02:28.870Z,1004.30
2022-09-23T13:03:28.791Z,1004.25
2022-09-23T13:04:28.780Z,1004.22
2022-09-23T13:05:28.768Z,1004.28
2022-09-23T13:06:28.771Z,1004.23
2022-09-23T13:07:28.749Z,1004.21
2022-09-23T13:08:28.734Z,1004.19
2022-09-23T13:09:28.723Z,1004.21
2022-09-23T13:10:33.759Z,1004.22
2022-09-23T13:11:28.701Z,1004.19
2022-09-23T13:12:28.709Z,1004.27
2022-09-23T13:13:28.686Z,1004.19
2022-09-23T13:14:28.669Z,1004.18
2022-09-23T13:15:28.664Z,1004.21
2022-09-23T13:16:28.690Z,1004.21
2022-09-23T13:17:28.771Z,1004.25
2022-09-23T13:18:28.622Z,1004.19
2022-09-23T13:19:28.614Z,1004.16
2022-09-23T13:20:28.599Z,1004.14
2022-09-23T13:21:33.614Z,1004.17
2022-09-23T13:22:28.595Z,1004.18
2022-09-23T13:23:28.578Z,1004.15
2022-09-23T13:24:28.556Z,1004.16
2022-09-23T13:25:28.541Z,1004.17
2022-09-23T13:26:28.532Z,1004.08
2022-09-23T13:27:28.535Z,1004.10
2022-09-23T13:28:28.535Z,1004.10
2022-09-23T13:29:28.496Z,1004.08
2022-09-23T13:30:28.489Z,1004.06
2022-09-23T13:31:28.536Z,1004.06
2022-09-23T13:32:33.606Z,1004.09
2022-09-23T13:33:28.474Z,1004.09
2022-09-23T13:34:28.475Z,1004.04
2022-09-23T13:35:28.516Z,1004.04
2022-09-23T13:36:28.427Z,1004.03
2022-09-23T13:37:28.470Z,1004.14
2022-09-23T13:38:28.414Z,1004.02
2022-09-23T13:39:28.393Z,1004.01
2022-09-23T13:40:28.528Z,1003.98
2022-09-23T13:41:28.450Z,1004.01
2022-09-23T13:42:28.366Z,1004.03
2022-09-23T13:43:36.449Z,1003.99
2022-09-23T13:44:29.333Z,1003.92
2022-09-23T13:45:28.408Z,1003.89
2022-09-23T13:46:28.319Z,1003.92
2022-09-23T13:47:28.302Z,1003.92
2022-09-23T13:48:28.322Z,1003.82
2022-09-23T13:49:28.271Z,1003.93
2022-09-23T13:50:32.778Z,1003.86
2022-09-23T13:51:29.248Z,1003.85
2022-09-23T13:52:28.465Z,1003.80
2022-09-23T13:53:28.244Z,1003.82
2022-09-23T13:54:33.254Z,1003.84
2022-09-23T13:55:28.252Z,1003.81
2022-09-23T13:56:28.193Z,1003.74
2022-09-23T13:57:28.224Z,1003.76
2022-09-23T13:58:28.183Z,1003.75
2022-09-23T13:59:28.165Z,1003.70
2022-09-23T14:00:28.210Z,1003.72
2022-09-23T14:01:28.191Z,1003.68
2022-09-23T14:02:28.179Z,1003.75
2022-09-23T14:03:32.418Z,1003.68
2022-09-23T14:04:29.211Z,1003.68
2022-09-23T14:05:33.117Z,1003.67
2022-09-23T14:06:28.082Z,1003.64
2022-09-23T14:07:28.072Z,1003.69
2022-09-23T14:08:28.083Z,1003.62
2022-09-23T14:09:28.049Z,1003.68
2022-09-23T14:10:28.048Z,1003.71
2022-09-23T14:11:28.034Z,1003.70
2022-09-23T14:12:28.018Z,1003.69
2022-09-23T14:13:28.041Z,1003.68
2022-09-23T14:14:27.994Z,1003.66
2022-09-23T14:15:27.986Z,1003.61
2022-09-23T14:16:33.034Z,1003.64
2022-09-23T14:17:27.970Z,1003.66
2022-09-23T14:18:27.950Z,1003.65
2022-09-23T14:19:27.950Z,1003.66
2022-09-23T14:20:27.945Z,1003.63
2022-09-23T14:21:27.913Z,1003.60
2022-09-23T14:22:27.908Z,1003.61
2022-09-23T14:23:27.891Z,1003.55
2022-09-23T14:24:27.896Z,1003.55
2022-09-23T14:25:27.869Z,1003.48
2022-09-23T14:26:27.866Z,1003.53
2022-09-23T14:27:32.872Z,1003.51
2022-09-23T14:28:27.837Z,1003.47
2022-09-23T14:29:27.850Z,1003.52
2022-09-23T14:30:27.816Z,1003.48
2022-09-23T14:31:27.833Z,1003.46
2022-09-23T14:32:27.795Z,1003.40
2022-09-23T14:33:27.783Z,1003.43
2022-09-23T14:34:27.795Z,1003.43
2022-09-23T14:35:27.758Z,1003.39
2022-09-23T14:36:27.767Z,1003.37
2022-09-23T14:37:27.735Z,1003.37
2022-09-23T14:38:32.750Z,1003.31
2022-09-23T14:39:27.724Z,1003.39
2022-09-23T14:40:27.766Z,1003.41
2022-09-23T14:41:27.694Z,1003.30
2022-09-23T14:42:27.681Z,1003.34
2022-09-23T14:43:27.696Z,1003.40
2022-09-23T14:44:27.669Z,1003.36
2022-09-23T14:45:27.735Z,1003.36
2022-09-23T14:46:27.638Z,1003.31
2022-09-23T14:47:27.628Z,1003.25
2022-09-23T14:48:27.620Z,1003.27
2022-09-23T14:49:32.643Z,1003.27
2022-09-23T14:50:27.591Z,1003.28
2022-09-23T14:51:27.586Z,1003.30
2022-09-23T14:52:27.603Z,1003.31
2022-09-23T14:53:27.566Z,1003.31
2022-09-23T14:54:27.558Z,1003.34
2022-09-23T14:55:27.533Z,1003.31
2022-09-23T14:56:27.524Z,1003.39
2022-09-23T14:57:27.544Z,1003.29
2022-09-23T14:58:27.509Z,1003.28
2022-09-23T14:59:27.505Z,1003.27
2022-09-23T15:00:32.507Z,1003.32
2022-09-23T15:01:27.597Z,1003.31
2022-09-23T15:02:27.470Z,1003.27
2022-09-23T15:03:27.508Z,1003.31
2022-09-23T15:04:27.449Z,1003.22
2022-09-23T15:05:27.426Z,1003.27
2022-09-23T15:06:27.416Z,1003.27
2022-09-23T15:07:28.395Z,1003.20
2022-09-23T15:08:27.453Z,1003.21
2022-09-23T15:09:27.387Z,1003.29
2022-09-23T15:10:27.372Z,1003.29
2022-09-23T15:11:32.375Z,1003.26
2022-09-23T15:12:27.352Z,1003.25
2022-09-23T15:13:27.349Z,1003.19
2022-09-23T15:14:37.841Z,1003.14
2022-09-23T15:15:28.327Z,1003.16
2022-09-23T15:16:27.408Z,1003.18
2022-09-23T15:17:27.320Z,1003.13
2022-09-23T15:18:27.294Z,1003.12
2022-09-23T15:19:27.277Z,1003.22
2022-09-23T15:20:27.256Z,1003.14
2022-09-23T15:21:27.249Z,1003.17
2022-09-23T15:22:32.522Z,1003.16
2022-09-23T15:23:28.425Z,1003.14
2022-09-23T15:24:27.252Z,1003.12
2022-09-23T15:25:27.234Z,1003.15
2022-09-23T15:26:27.187Z,1003.19
2022-09-23T15:27:27.180Z,1003.15
2022-09-23T15:28:27.167Z,1003.17
2022-09-23T15:29:27.172Z,1003.14
2022-09-23T15:30:27.229Z,1003.11
2022-09-23T15:31:27.260Z,1003.17
2022-09-23T15:32:27.121Z,1003.16
2022-09-23T15:33:32.129Z,1003.17
2022-09-23T15:34:27.110Z,1003.15
2022-09-23T15:35:27.098Z,1003.16
2022-09-23T15:36:27.074Z,1003.21
2022-09-23T15:37:27.065Z,1003.26
2022-09-23T15:38:27.055Z,1003.14
2022-09-23T15:39:35.747Z,1003.26
2022-09-23T15:40:28.520Z,1003.21
2022-09-23T15:41:27.050Z,1003.21
2022-09-23T15:42:27.051Z,1003.25
2022-09-23T15:43:26.997Z,1003.27
2022-09-23T15:44:32.032Z,1003.18
2022-09-23T15:45:27.006Z,1003.25
2022-09-23T15:46:27.096Z,1003.20
2022-09-23T15:47:26.951Z,1003.29
2022-09-23T15:48:26.938Z,1003.21
2022-09-23T15:49:26.928Z,1003.19
2022-09-23T15:50:26.927Z,1003.25
2022-09-23T15:51:26.919Z,1003.25
2022-09-23T15:52:26.915Z,1003.22
2022-09-23T15:53:26.881Z,1003.18
2022-09-23T15:54:26.871Z,1003.19
2022-09-23T15:55:31.916Z,1003.24
2022-09-23T15:56:26.857Z,1003.23
2022-09-23T15:57:26.836Z,1003.23
2022-09-23T15:58:26.826Z,1003.20
2022-09-23T15:59:26.829Z,1003.19
2022-09-23T16:00:26.814Z,1003.25
2022-09-23T16:01:26.896Z,1003.21
2022-09-23T16:02:26.890Z,1003.25
2022-09-23T16:03:26.770Z,1003.20
2022-09-23T16:04:26.758Z,1003.13
2022-09-23T16:05:26.758Z,1003.05
2022-09-23T16:06:31.765Z,1002.95